KFDK/FDK METAR and TAF weather

Enter ICAO airport designator
Station Type Date Time Source
KFDK METAR 2019/04/24 21:47 UTC NOAA

KFDK 242147Z 03005KT 10SM SKC 24/05 A2987


Station Type Date Time Source
KFDK Decoded METAR 2019/04/24 21:47 UTC NOAA

Frederick, Frederick Municipal Airport, MD, United States (KFDK) 39-25-03N 077-22-28W
Apr 24, 2019 - 05:47 PM EDT / 2019.04.24 2147 UTC
Wind: from the NNE (030 degrees) at 6 MPH (5 KT):0
Visibility: 10 mile(s):0
Sky conditions: clear
Temperature: 75 F (24 C)
Dew Point: 41 F (5 C)
Relative Humidity: 29%
Pressure (altimeter): 29.87 in. Hg (1011 hPa)
ob: KFDK 242147Z 03005KT 10SM SKC 24/05 A2987
cycle: 22

Station Type Date Time Source
KFDK TAF UTC NOAA

Error!

Example: see airport list